sensor_id;sensor_type;location;lat;lon;timestamp;pressure;altitude;pressure_sealevel;temperature;humidity
13015;BME280;6573;57.696;11.950;2023-02-13T00:01:23;102859.88;;;9.21;100.00
13015;BME280;6573;57.696;11.950;2023-02-13T00:03:53;102854.34;;;9.37;100.00
13015;BME280;6573;57.696;11.950;2023-02-13T00:06:21;102854.13;;;9.31;100.00
13015;BME280;6573;57.696;11.950;2023-02-13T00:08:49;102864.06;;;9.16;100.00
13015;BME280;6573;57.696;11.950;2023-02-13T00:11:18;102864.31;;;9.22;100.00
13015;BME280;6573;57.696;11.950;2023-02-13T00:13:46;102866.41;;;9.32;100.00
13015;BME280;6573;57.696;11.950;2023-02-13T00:16:17;102855.81;;;9.29;100.00
13015;BME280;6573;57.696;11.950;2023-02-13T00:18:46;102859.47;;;9.34;100.00
13015;BME280;6573;57.696;11.950;2023-02-13T00:21:16;102848.97;;;9.34;100.00
13015;BME280;6573;57.696;11.950;2023-02-13T00:23:44;102853.56;;;9.16;100.00
13015;BME280;6573;57.696;11.950;2023-02-13T00:26:14;102850.44;;;9.00;100.00
13015;BME280;6573;57.696;11.950;2023-02-13T00:28:43;102853.38;;;9.09;100.00
13015;BME280;6573;57.696;11.950;2023-02-13T00:31:13;102850.94;;;9.16;100.00
13015;BME280;6573;57.696;11.950;2023-02-13T00:33:43;102848.50;;;8.96;100.00
13015;BME280;6573;57.696;11.950;2023-02-13T00:36:12;102855.16;;;9.10;100.00
13015;BME280;6573;57.696;11.950;2023-02-13T00:38:42;102842.75;;;9.06;100.00
13015;BME280;6573;57.696;11.950;2023-02-13T00:41:11;102848.84;;;8.82;100.00
13015;BME280;6573;57.696;11.950;2023-02-13T00:43:40;102852.44;;;9.07;100.00
13015;BME280;6573;57.696;11.950;2023-02-13T00:46:08;102840.53;;;8.93;100.00
13015;BME280;6573;57.696;11.950;2023-02-13T00:48:37;102849.69;;;9.04;100.00
13015;BME280;6573;57.696;11.950;2023-02-13T00:51:06;102846.00;;;8.99;100.00
13015;BME280;6573;57.696;11.950;2023-02-13T00:53:35;102844.88;;;9.17;100.00
13015;BME280;6573;57.696;11.950;2023-02-13T00:56:06;102848.31;;;9.16;100.00
13015;BME280;6573;57.696;11.950;2023-02-13T00:58:34;102847.19;;;9.07;100.00
13015;BME280;6573;57.696;11.950;2023-02-13T01:01:02;102852.78;;;9.18;100.00
13015;BME280;6573;57.696;11.950;2023-02-13T01:03:31;102853.91;;;9.25;100.00
13015;BME280;6573;57.696;11.950;2023-02-13T01:05:59;102857.66;;;9.31;100.00
13015;BME280;6573;57.696;11.950;2023-02-13T01:08:30;102856.94;;;9.35;100.00
13015;BME280;6573;57.696;11.950;2023-02-13T01:10:58;102849.72;;;9.30;100.00
13015;BME280;6573;57.696;11.950;2023-02-13T01:13:28;102845.03;;;9.21;100.00
13015;BME280;6573;57.696;11.950;2023-02-13T01:15:56;102821.56;;;9.00;100.00
13015;BME280;6573;57.696;11.950;2023-02-13T01:18:25;102845.00;;;9.20;100.00
13015;BME280;6573;57.696;11.950;2023-02-13T01:20:58;102853.81;;;9.22;100.00
13015;BME280;6573;57.696;11.950;2023-02-13T01:23:29;102838.16;;;9.25;100.00
13015;BME280;6573;57.696;11.950;2023-02-13T01:25:58;102841.63;;;9.24;100.00
13015;BME280;6573;57.696;11.950;2023-02-13T01:28:28;102829.34;;;9.23;100.00
13015;BME280;6573;57.696;11.950;2023-02-13T01:30:57;102841.84;;;9.30;100.00
13015;BME280;6573;57.696;11.950;2023-02-13T01:33:27;102831.00;;;9.21;100.00
13015;BME280;6573;57.696;11.950;2023-02-13T01:35:56;102840.03;;;9.29;100.00
13015;BME280;6573;57.696;11.950;2023-02-13T01:38:26;102843.72;;;9.34;100.00
13015;BME280;6573;57.696;11.950;2023-02-13T01:40:54;102843.00;;;9.13;100.00
13015;BME280;6573;57.696;11.950;2023-02-13T01:43:23;102841.50;;;9.21;100.00
13015;BME280;6573;57.696;11.950;2023-02-13T01:45:55;102838.06;;;9.22;100.00
13015;BME280;6573;57.696;11.950;2023-02-13T01:48:25;102836.25;;;9.21;100.00
13015;BME280;6573;57.696;11.950;2023-02-13T01:51:00;102846.88;;;9.24;100.00
13015;BME280;6573;57.696;11.950;2023-02-13T01:53:32;102839.94;;;9.26;100.00
13015;BME280;6573;57.696;11.950;2023-02-13T01:56:08;102834.91;;;9.32;100.00
13015;BME280;6573;57.696;11.950;2023-02-13T01:58:38;102837.31;;;9.26;100.00
13015;BME280;6573;57.696;11.950;2023-02-13T02:01:11;102835.69;;;9.05;100.00
13015;BME280;6573;57.696;11.950;2023-02-13T02:03:42;102830.56;;;9.08;100.00
13015;BME280;6573;57.696;11.950;2023-02-13T02:06:15;102837.63;;;9.09;100.00
13015;BME280;6573;57.696;11.950;2023-02-13T02:08:46;102835.69;;;9.05;100.00
13015;BME280;6573;57.696;11.950;2023-02-13T02:11:27;102830.81;;;9.15;100.00
13015;BME280;6573;57.696;11.950;2023-02-13T02:13:57;102837.22;;;9.23;100.00
13015;BME280;6573;57.696;11.950;2023-02-13T02:16:28;102837.75;;;9.13;100.00
13015;BME280;6573;57.696;11.950;2023-02-13T02:18:57;102841.31;;;9.15;100.00
13015;BME280;6573;57.696;11.950;2023-02-13T02:21:47;102848.31;;;9.16;100.00
13015;BME280;6573;57.696;11.950;2023-02-13T02:24:45;102854.31;;;9.11;100.00
13015;BME280;6573;57.696;11.950;2023-02-13T02:27:40;102853.38;;;9.09;100.00
13015;BME280;6573;57.696;11.950;2023-02-13T02:33:33;102842.75;;;9.06;100.00
13015;BME280;6573;57.696;11.950;2023-02-13T02:36:18;102848.31;;;9.16;100.00
13015;BME280;6573;57.696;11.950;2023-02-13T02:39:06;102825.78;;;8.97;100.00
13015;BME280;6573;57.696;11.950;2023-02-13T02:41:50;102828.81;;;9.07;100.00
13015;BME280;6573;57.696;11.950;2023-02-13T02:44:32;102840.88;;;9.02;100.00
13015;BME280;6573;57.696;11.950;2023-02-13T02:47:10;102835.38;;;8.96;100.00
13015;BME280;6573;57.696;11.950;2023-02-13T02:50:15;102835.63;;;9.02;100.00
13015;BME280;6573;57.696;11.950;2023-02-13T02:52:56;102833.50;;;8.92;100.00
13015;BME280;6573;57.696;11.950;2023-02-13T02:55:31;102834.22;;;8.88;100.00
13015;BME280;6573;57.696;11.950;2023-02-13T02:58:08;102840.19;;;8.84;100.00
13015;BME280;6573;57.696;11.950;2023-02-13T03:00:58;102840.19;;;8.84;100.00
13015;BME280;6573;57.696;11.950;2023-02-13T03:03:45;102842.00;;;8.85;100.00
13015;BME280;6573;57.696;11.950;2023-02-13T03:06:36;102839.13;;;8.79;100.00
13015;BME280;6573;57.696;11.950;2023-02-13T03:09:12;102828.75;;;8.82;100.00
13015;BME280;6573;57.696;11.950;2023-02-13T03:12:00;102830.81;;;8.91;100.00
13015;BME280;6573;57.696;11.950;2023-02-13T03:14:46;102803.22;;;8.78;100.00
13015;BME280;6573;57.696;11.950;2023-02-13T03:17:17;102833.50;;;8.92;100.00
13015;BME280;6573;57.696;11.950;2023-02-13T03:20:13;102833.28;;;8.86;100.00
13015;BME280;6573;57.696;11.950;2023-02-13T03:23:10;102828.56;;;9.01;100.00
13015;BME280;6573;57.696;11.950;2023-02-13T03:28:50;102838.41;;;9.07;100.00
13015;BME280;6573;57.696;11.950;2023-02-13T03:31:43;102841.31;;;9.15;100.00
13015;BME280;6573;57.696;11.950;2023-02-13T03:34:18;102834.25;;;9.13;100.00
13015;BME280;6573;57.696;11.950;2023-02-13T03:36:51;102787.72;;;8.84;100.00
13015;BME280;6573;57.696;11.950;2023-02-13T03:39:47;102817.53;;;9.10;100.00
13015;BME280;6573;57.696;11.950;2023-02-13T03:42:27;102825.66;;;9.18;100.00
13015;BME280;6573;57.696;11.950;2023-02-13T03:45:02;102816.94;;;9.19;100.00
13015;BME280;6573;57.696;11.950;2023-02-13T03:47:53;102823.44;;;9.04;100.00
13015;BME280;6573;57.696;11.950;2023-02-13T03:50:23;102820.19;;;9.11;100.00
13015;BME280;6573;57.696;11.950;2023-02-13T03:52:53;102811.06;;;9.00;100.00
13015;BME280;6573;57.696;11.950;2023-02-13T03:55:29;102800.16;;;8.90;100.00
13015;BME280;6573;57.696;11.950;2023-02-13T03:58:20;102814.63;;;9.02;100.00
13015;BME280;6573;57.696;11.950;2023-02-13T04:01:08;102823.22;;;8.98;100.00
13015;BME280;6573;57.696;11.950;2023-02-13T04:03:45;102825.19;;;9.05;100.00
13015;BME280;6573;57.696;11.950;2023-02-13T04:06:20;102832.50;;;9.13;100.00
13015;BME280;6573;57.696;11.950;2023-02-13T04:08:49;102818.38;;;9.10;100.00
13015;BME280;6573;57.696;11.950;2023-02-13T04:11:24;102830.56;;;9.08;100.00
13015;BME280;6573;57.696;11.950;2023-02-13T04:13:57;102832.25;;;9.06;100.00
13015;BME280;6573;57.696;11.950;2023-02-13T04:16:29;102832.50;;;9.13;100.00
13015;BME280;6573;57.696;11.950;2023-02-13T04:19:01;102799.38;;;8.92;100.00
13015;BME280;6573;57.696;11.950;2023-02-13T04:21:31;102834.91;;;9.08;100.00
13015;BME280;6573;57.696;11.950;2023-02-13T04:24:00;102832.13;;;9.03;100.00
13015;BME280;6573;57.696;11.950;2023-02-13T04:26:33;102849.19;;;9.15;100.00
13015;BME280;6573;57.696;11.950;2023-02-13T04:29:02;102853.38;;;9.09;100.00
13015;BME280;6573;57.696;11.950;2023-02-13T04:31:31;102838.56;;;9.11;100.00
13015;BME280;6573;57.696;11.950;2023-02-13T04:33:59;102849.56;;;9.01;100.00
13015;BME280;6573;57.696;11.950;2023-02-13T04:36:28;102850.81;;;8.87;100.00
13015;BME280;6573;57.696;11.950;2023-02-13T04:38:56;102842.88;;;9.09;100.00
13015;BME280;6573;57.696;11.950;2023-02-13T04:41:24;102853.56;;;9.16;100.00
13015;BME280;6573;57.696;11.950;2023-02-13T04:43:54;102847.22;;;9.09;100.00
13015;BME280;6573;57.696;11.950;2023-02-13T04:46:22;102843.19;;;9.19;100.00
13015;BME280;6573;57.696;11.950;2023-02-13T04:48:50;102847.91;;;9.29;100.00
13015;BME280;6573;57.696;11.950;2023-02-13T04:51:19;102862.09;;;9.34;100.00
13015;BME280;6573;57.696;11.950;2023-02-13T04:53:47;102854.03;;;9.28;100.00
13015;BME280;6573;57.696;11.950;2023-02-13T04:56:15;102818.06;;;9.01;100.00
13015;BME280;6573;57.696;11.950;2023-02-13T04:58:45;102850.25;;;9.20;100.00
13015;BME280;6573;57.696;11.950;2023-02-13T05:01:16;102848.31;;;9.16;100.00
13015;BME280;6573;57.696;11.950;2023-02-13T05:03:45;102835.94;;;9.11;100.00
13015;BME280;6573;57.696;11.950;2023-02-13T05:06:13;102839.94;;;9.26;100.00
13015;BME280;6573;57.696;11.950;2023-02-13T05:08:41;102838.34;;;9.05;100.00
13015;BME280;6573;57.696;11.950;2023-02-13T05:11:10;102828.28;;;9.18;100.00
13015;BME280;6573;57.696;11.950;2023-02-13T05:13:38;102816.63;;;9.09;100.00
13015;BME280;6573;57.696;11.950;2023-02-13T05:16:06;102829.75;;;9.09;100.00
13015;BME280;6573;57.696;11.950;2023-02-13T05:18:36;102837.91;;;9.17;100.00
13015;BME280;6573;57.696;11.950;2023-02-13T05:21:04;102837.09;;;9.20;100.00
13015;BME280;6573;57.696;11.950;2023-02-13T05:23:50;102840.16;;;9.32;100.00
13015;BME280;6573;57.696;11.950;2023-02-13T05:26:18;102841.06;;;9.32;100.00
13015;BME280;6573;57.696;11.950;2023-02-13T05:28:46;102842.50;;;9.24;100.00
13015;BME280;6573;57.696;11.950;2023-02-13T05:31:32;102838.06;;;9.22;100.00
13015;BME280;6573;57.696;11.950;2023-02-13T05:34:01;102842.16;;;9.39;100.00
13015;BME280;6573;57.696;11.950;2023-02-13T05:36:29;102836.06;;;9.40;100.00
13015;BME280;6573;57.696;11.950;2023-02-13T05:38:58;102843.25;;;9.45;100.00
13015;BME280;6573;57.696;11.950;2023-02-13T05:41:27;102854.53;;;9.43;100.00
13015;BME280;6573;57.696;11.950;2023-02-13T05:43:55;102858.06;;;9.43;100.00
13015;BME280;6573;57.696;11.950;2023-02-13T05:46:24;102850.84;;;9.38;100.00
13015;BME280;6573;57.696;11.950;2023-02-13T05:48:54;102863.38;;;9.45;100.00
13015;BME280;6573;57.696;11.950;2023-02-13T05:51:23;102874.69;;;9.42;100.00
13015;BME280;6573;57.696;11.950;2023-02-13T05:53:52;102872.09;;;9.44;100.00
13015;BME280;6573;57.696;11.950;2023-02-13T05:56:20;102872.56;;;9.08;100.00
13015;BME280;6573;57.696;11.950;2023-02-13T05:58:50;102880.06;;;9.22;100.00
13015;BME280;6573;57.696;11.950;2023-02-13T06:01:19;102871.38;;;9.23;100.00
13015;BME280;6573;57.696;11.950;2023-02-13T06:03:48;102887.53;;;9.35;100.00
13015;BME280;6573;57.696;11.950;2023-02-13T06:06:18;102871.88;;;9.38;100.00
13015;BME280;6573;57.696;11.950;2023-02-13T06:08:48;102870.34;;;9.19;100.00
13015;BME280;6573;57.696;11.950;2023-02-13T06:11:18;102887.13;;;9.23;100.00
13015;BME280;6573;57.696;11.950;2023-02-13T06:13:46;102884.88;;;9.09;100.00
13015;BME280;6573;57.696;11.950;2023-02-13T06:16:15;102883.50;;;9.21;100.00
13015;BME280;6573;57.696;11.950;2023-02-13T06:18:43;102873.13;;;9.24;100.00
13015;BME280;6573;57.696;11.950;2023-02-13T06:21:14;102881.63;;;9.17;100.00
13015;BME280;6573;57.696;11.950;2023-02-13T06:23:43;102881.75;;;9.20;100.00
13015;BME280;6573;57.696;11.950;2023-02-13T06:26:13;102887.00;;;9.20;100.00
13015;BME280;6573;57.696;11.950;2023-02-13T06:28:41;102878.19;;;9.18;100.00
13015;BME280;6573;57.696;11.950;2023-02-13T06:31:09;102894.25;;;9.27;100.00
13015;BME280;6573;57.696;11.950;2023-02-13T06:33:38;102897.72;;;9.26;100.00
13015;BME280;6573;57.696;11.950;2023-02-13T06:36:06;102898.00;;;9.09;100.00
13015;BME280;6573;57.696;11.950;2023-02-13T06:38:34;102895.72;;;9.19;100.00
13015;BME280;6573;57.696;11.950;2023-02-13T06:41:03;102908.00;;;9.20;100.00
13015;BME280;6573;57.696;11.950;2023-02-13T06:43:34;102902.97;;;9.26;100.00
13015;BME280;6573;57.696;11.950;2023-02-13T06:46:06;102904.44;;;9.18;100.00
13015;BME280;6573;57.696;11.950;2023-02-13T06:48:34;102908.84;;;9.19;100.00
13015;BME280;6573;57.696;11.950;2023-02-13T06:51:03;102892.13;;;9.17;100.00
13015;BME280;6573;57.696;11.950;2023-02-13T06:53:32;102893.47;;;9.29;100.00
13015;BME280;6573;57.696;11.950;2023-02-13T06:56:02;102897.81;;;9.29;100.00
13015;BME280;6573;57.696;11.950;2023-02-13T06:58:31;102900.25;;;9.23;100.00
13015;BME280;6573;57.696;11.950;2023-02-13T07:01:01;102900.75;;;9.13;100.00
13015;BME280;6573;57.696;11.950;2023-02-13T07:03:30;102885.09;;;9.16;100.00
13015;BME280;6573;57.696;11.950;2023-02-13T07:05:58;102885.31;;;9.22;100.00
13015;BME280;6573;57.696;11.950;2023-02-13T07:08:26;102892.56;;;9.29;100.00
13015;BME280;6573;57.696;11.950;2023-02-13T07:10:55;102889.13;;;9.30;100.00
13015;BME280;6573;57.696;11.950;2023-02-13T07:13:23;102891.00;;;9.34;100.00
13015;BME280;6573;57.696;11.950;2023-02-13T07:15:52;102894.50;;;9.33;100.00
13015;BME280;6573;57.696;11.950;2023-02-13T07:18:21;102901.63;;;9.37;100.00
13015;BME280;6573;57.696;11.950;2023-02-13T07:20:49;102905.78;;;9.30;100.00
13015;BME280;6573;57.696;11.950;2023-02-13T07:23:18;102900.84;;;9.16;100.00
13015;BME280;6573;57.696;11.950;2023-02-13T07:25:46;102918.06;;;9.07;100.00
13015;BME280;6573;57.696;11.950;2023-02-13T07:28:14;102913.16;;;9.17;100.00
13015;BME280;6573;57.696;11.950;2023-02-13T07:30:43;102900.53;;;9.30;100.00
13015;BME280;6573;57.696;11.950;2023-02-13T07:33:11;102893.91;;;9.41;100.00
13015;BME280;6573;57.696;11.950;2023-02-13T07:35:45;102884.41;;;9.45;100.00
13015;BME280;6573;57.696;11.950;2023-02-13T07:38:13;102890.53;;;9.45;100.00
13015;BME280;6573;57.696;11.950;2023-02-13T07:40:41;102883.78;;;9.52;100.00
13015;BME280;6573;57.696;11.950;2023-02-13T07:43:10;102876.59;;;9.48;100.00
13015;BME280;6573;57.696;11.950;2023-02-13T07:46:05;102876.34;;;9.40;100.00
13015;BME280;6573;57.696;11.950;2023-02-13T07:48:33;102877.34;;;9.44;100.00
13015;BME280;6573;57.696;11.950;2023-02-13T07:51:04;102869.56;;;9.22;100.00
13015;BME280;6573;57.696;11.950;2023-02-13T07:53:32;102893.25;;;9.23;100.00
13015;BME280;6573;57.696;11.950;2023-02-13T07:56:04;102889.13;;;9.30;100.00
13015;BME280;6573;57.696;11.950;2023-02-13T07:58:32;102889.75;;;9.48;100.00
13015;BME280;6573;57.696;11.950;2023-02-13T08:01:05;102889.97;;;9.54;100.00
13015;BME280;6573;57.696;11.950;2023-02-13T08:03:33;102903.09;;;9.54;100.00
13015;BME280;6573;57.696;11.950;2023-02-13T08:06:03;102902.03;;;9.49;100.00
13015;BME280;6573;57.696;11.950;2023-02-13T08:08:32;102921.69;;;9.35;100.00
13015;BME280;6573;57.696;11.950;2023-02-13T08:11:03;102934.72;;;9.32;100.00
13015;BME280;6573;57.696;11.950;2023-02-13T08:13:50;102942.47;;;9.29;100.00
13015;BME280;6573;57.696;11.950;2023-02-13T08:16:18;102939.13;;;9.09;100.00
13015;BME280;6573;57.696;11.950;2023-02-13T08:18:46;102946.81;;;9.28;100.00
13015;BME280;6573;57.696;11.950;2023-02-13T08:21:16;102946.91;;;9.30;100.00
13015;BME280;6573;57.696;11.950;2023-02-13T08:23:45;102957.94;;;9.21;100.00
13015;BME280;6573;57.696;11.950;2023-02-13T08:26:14;102968.25;;;9.15;100.00
13015;BME280;6573;57.696;11.950;2023-02-13T08:28:42;102959.19;;;9.31;100.00
13015;BME280;6573;57.696;11.950;2023-02-13T08:31:11;102967.09;;;9.08;100.00
13015;BME280;6573;57.696;11.950;2023-02-13T08:33:39;102977.53;;;9.29;100.00
13015;BME280;6573;57.696;11.950;2023-02-13T08:36:08;102975.97;;;9.34;100.00
13015;BME280;6573;57.696;11.950;2023-02-13T08:38:38;102995.50;;;9.19;100.00
13015;BME280;6573;57.696;11.950;2023-02-13T08:41:07;102995.75;;;9.25;100.00
13015;BME280;6573;57.696;11.950;2023-02-13T08:43:36;102992.72;;;9.38;100.00
13015;BME280;6573;57.696;11.950;2023-02-13T08:46:04;102990.59;;;9.28;100.00
13015;BME280;6573;57.696;11.950;2023-02-13T08:48:33;103003.91;;;9.32;100.00
13015;BME280;6573;57.696;11.950;2023-02-13T08:51:05;103006.56;;;9.34;100.00
13015;BME280;6573;57.696;11.950;2023-02-13T08:53:35;103006.56;;;9.34;100.00
13015;BME280;6573;57.696;11.950;2023-02-13T08:56:05;102997.41;;;9.23;100.00
13015;BME280;6573;57.696;11.950;2023-02-13T08:58:36;102986.19;;;9.27;100.00
13015;BME280;6573;57.696;11.950;2023-02-13T09:01:05;102988.94;;;9.30;100.00
13015;BME280;6573;57.696;11.950;2023-02-13T09:03:34;102992.47;;;9.55;100.00
13015;BME280;6573;57.696;11.950;2023-02-13T09:06:03;102997.84;;;9.58;100.00
13015;BME280;6573;57.696;11.950;2023-02-13T09:08:33;102993.25;;;9.53;100.00
13015;BME280;6573;57.696;11.950;2023-02-13T09:11:02;103000.00;;;9.45;100.00
13015;BME280;6573;57.696;11.950;2023-02-13T09:13:34;103014.91;;;9.46;100.00
13015;BME280;6573;57.696;11.950;2023-02-13T09:16:04;102999.81;;;9.64;100.00
13015;BME280;6573;57.696;11.950;2023-02-13T09:18:33;103002.00;;;9.52;100.00
13015;BME280;6573;57.696;11.950;2023-02-13T09:21:03;102996.50;;;9.46;100.00
13015;BME280;6573;57.696;11.950;2023-02-13T09:23:32;102985.09;;;9.69;100.00
13015;BME280;6573;57.696;11.950;2023-02-13T09:26:02;102992.13;;;9.70;100.00
13015;BME280;6573;57.696;11.950;2023-02-13T09:28:33;102994.25;;;9.80;100.00
13015;BME280;6573;57.696;11.950;2023-02-13T09:31:04;102996.84;;;9.78;100.00
13015;BME280;6573;57.696;11.950;2023-02-13T09:33:32;102979.19;;;9.74;100.00
13015;BME280;6573;57.696;11.950;2023-02-13T09:36:03;102987.41;;;9.85;100.00
13015;BME280;6573;57.696;11.950;2023-02-13T09:38:33;102988.06;;;10.03;100.00
13015;BME280;6573;57.696;11.950;2023-02-13T09:41:04;102997.94;;;9.85;100.00
13015;BME280;6573;57.696;11.950;2023-02-13T09:43:36;102994.88;;;9.73;100.00
13015;BME280;6573;57.696;11.950;2023-02-13T09:46:11;102984.38;;;9.98;100.00
13015;BME280;6573;57.696;11.950;2023-02-13T09:48:42;102991.56;;;9.78;100.00
13015;BME280;6573;57.696;11.950;2023-02-13T09:51:14;102984.06;;;9.89;100.00
13015;BME280;6573;57.696;11.950;2023-02-13T09:53:51;102989.00;;;10.05;100.00
13015;BME280;6573;57.696;11.950;2023-02-13T09:56:29;102989.94;;;10.07;100.00
13015;BME280;6573;57.696;11.950;2023-02-13T09:59:16;102999.81;;;10.13;100.00
13015;BME280;6573;57.696;11.950;2023-02-13T10:01:54;102997.94;;;9.85;100.00
13015;BME280;6573;57.696;11.950;2023-02-13T10:04:28;103008.91;;;9.97;100.00
13015;BME280;6573;57.696;11.950;2023-02-13T10:07:12;103003.41;;;9.91;100.00
13015;BME280;6573;57.696;11.950;2023-02-13T10:09:49;102977.84;;;10.37;100.00
13015;BME280;6573;57.696;11.950;2023-02-13T10:12:34;103014.47;;;11.73;100.00
13015;BME280;6573;57.696;11.950;2023-02-13T10:15:20;103018.16;;;12.46;100.00
13015;BME280;6573;57.696;11.950;2023-02-13T10:17:56;103022.69;;;12.50;100.00
13015;BME280;6573;57.696;11.950;2023-02-13T10:20:31;103040.06;;;13.15;100.00
13015;BME280;6573;57.696;11.950;2023-02-13T10:23:21;103039.84;;;12.70;100.00
13015;BME280;6573;57.696;11.950;2023-02-13T10:25:56;103028.56;;;11.15;100.00
13015;BME280;6573;57.696;11.950;2023-02-13T10:28:31;103053.94;;;10.85;100.00
13015;BME280;6573;57.696;11.950;2023-02-13T10:31:04;103058.72;;;10.70;100.00
13015;BME280;6573;57.696;11.950;2023-02-13T10:33:40;103049.91;;;10.68;100.00
13015;BME280;6573;57.696;11.950;2023-02-13T10:36:15;103054.88;;;10.59;100.00
13015;BME280;6573;57.696;11.950;2023-02-13T10:38:55;103069.16;;;10.67;100.00
13015;BME280;6573;57.696;11.950;2023-02-13T10:41:31;103053.84;;;10.82;100.00
13015;BME280;6573;57.696;11.950;2023-02-13T10:44:27;103056.97;;;10.69;100.00
13015;BME280;6573;57.696;11.950;2023-02-13T10:47:10;103056.34;;;10.51;100.00
13015;BME280;6573;57.696;11.950;2023-02-13T10:52:38;103054.88;;;10.59;100.00
13015;BME280;6573;57.696;11.950;2023-02-13T10:55:24;103002.69;;;10.20;100.00
13015;BME280;6573;57.696;11.950;2023-02-13T10:58:05;103061.59;;;10.51;100.00
13015;BME280;6573;57.696;11.950;2023-02-13T11:00:39;103048.16;;;10.16;100.00
13015;BME280;6573;57.696;11.950;2023-02-13T11:03:18;103055.72;;;10.32;100.00
13015;BME280;6573;57.696;11.950;2023-02-13T11:05:47;103061.22;;;10.38;100.00
13015;BME280;6573;57.696;11.950;2023-02-13T11:08:20;103048.34;;;10.48;100.00
13015;BME280;6573;57.696;11.950;2023-02-13T11:10:49;103061.59;;;10.51;100.00
13015;BME280;6573;57.696;11.950;2023-02-13T11:13:19;103066.97;;;10.54;100.00
13015;BME280;6573;57.696;11.950;2023-02-13T11:16:04;103066.16;;;10.29;100.00
13015;BME280;6573;57.696;11.950;2023-02-13T11:18:37;103055.53;;;10.26;100.00
13015;BME280;6573;57.696;11.950;2023-02-13T11:21:08;103075.06;;;10.60;100.00
13015;BME280;6573;57.696;11.950;2023-02-13T11:23:41;103070.94;;;10.68;100.00
13015;BME280;6573;57.696;11.950;2023-02-13T11:26:15;103068.44;;;10.71;100.00
13015;BME280;6573;57.696;11.950;2023-02-13T11:29:00;103019.09;;;10.38;100.00
13015;BME280;6573;57.696;11.950;2023-02-13T11:31:32;103053.78;;;10.79;100.00
13015;BME280;6573;57.696;11.950;2023-02-13T11:37:15;103045.22;;;10.86;100.00
13015;BME280;6573;57.696;11.950;2023-02-13T11:39:46;103061.19;;;10.92;100.00
13015;BME280;6573;57.696;11.950;2023-02-13T11:42:20;103059.97;;;11.09;100.00
13015;BME280;6573;57.696;11.950;2023-02-13T11:44:53;103061.78;;;11.10;100.00
13015;BME280;6573;57.696;11.950;2023-02-13T11:47:36;103017.69;;;10.50;100.00
13015;BME280;6573;57.696;11.950;2023-02-13T11:50:19;103051.28;;;10.83;100.00
13015;BME280;6573;57.696;11.950;2023-02-13T11:52:57;103052.56;;;10.96;100.00
13015;BME280;6573;57.696;11.950;2023-02-13T11:55:30;103047.09;;;10.90;100.00
13015;BME280;6573;57.696;11.950;2023-02-13T11:58:00;103058.91;;;11.02;100.00
13015;BME280;6573;57.696;11.950;2023-02-13T12:00:32;103038.28;;;11.16;100.00
13015;BME280;6573;57.696;11.950;2023-02-13T12:03:25;103036.16;;;11.34;100.00
13015;BME280;6573;57.696;11.950;2023-02-13T12:05:59;103043.72;;;11.22;100.00
13015;BME280;6573;57.696;11.950;2023-02-13T12:08:31;103048.84;;;11.18;100.00
13015;BME280;6573;57.696;11.950;2023-02-13T12:11:02;103046.19;;;11.16;100.00
13015;BME280;6573;57.696;11.950;2023-02-13T12:13:32;103054.88;;;11.14;100.00
13015;BME280;6573;57.696;11.950;2023-02-13T12:16:05;103046.44;;;10.97;100.00
13015;BME280;6573;57.696;11.950;2023-02-13T12:18:40;103051.59;;;11.22;100.00
13015;BME280;6573;57.696;11.950;2023-02-13T12:21:27;103050.41;;;11.11;100.00
13015;BME280;6573;57.696;11.950;2023-02-13T12:24:05;103051.59;;;11.22;100.00
13015;BME280;6573;57.696;11.950;2023-02-13T12:26:39;103067.78;;;11.34;100.00
13015;BME280;6573;57.696;11.950;2023-02-13T12:29:22;103062.34;;;11.28;100.00
13015;BME280;6573;57.696;11.950;2023-02-13T12:32:08;103043.13;;;11.32;100.00
13015;BME280;6573;57.696;11.950;2023-02-13T12:34:54;103053.66;;;11.60;100.00
13015;BME280;6573;57.696;11.950;2023-02-13T12:37:43;103060.53;;;11.55;100.00
13015;BME280;6573;57.696;11.950;2023-02-13T12:40:55;103065.81;;;11.27;100.00
13015;BME280;6573;57.696;11.950;2023-02-13T12:43:41;103054.59;;;11.34;100.00
13015;BME280;6573;57.696;11.950;2023-02-13T12:46:19;103067.88;;;11.09;100.00
13015;BME280;6573;57.696;11.950;2023-02-13T12:48:54;103061.81;;;11.12;100.00
13015;BME280;6573;57.696;11.950;2023-02-13T12:51:39;103064.22;;;11.32;100.00
13015;BME280;6573;57.696;11.950;2023-02-13T12:57:28;103069.88;;;11.74;100.00
13015;BME280;6573;57.696;11.950;2023-02-13T13:00:14;103076.91;;;11.45;100.00
13015;BME280;6573;57.696;11.950;2023-02-13T13:03:02;103088.59;;;11.25;100.00
13015;BME280;6573;57.696;11.950;2023-02-13T13:05:50;103083.00;;;10.86;100.00
13015;BME280;6573;57.696;11.950;2023-02-13T13:09:05;103086.75;;;10.68;100.00
13015;BME280;6573;57.696;11.950;2023-02-13T13:11:54;103050.69;;;10.38;100.00
13015;BME280;6573;57.696;11.950;2023-02-13T13:14:35;103090.53;;;10.76;100.00
13015;BME280;6573;57.696;11.950;2023-02-13T13:17:21;103090.03;;;10.61;100.00
13015;BME280;6573;57.696;11.950;2023-02-13T13:19:59;103080.69;;;10.70;100.00
13015;BME280;6573;57.696;11.950;2023-02-13T13:22:33;103072.34;;;10.57;100.00
13015;BME280;6573;57.696;11.950;2023-02-13T13:25:11;103074.34;;;10.38;100.00
13015;BME280;6573;57.696;11.950;2023-02-13T13:27:44;103086.13;;;10.50;100.00
13015;BME280;6573;57.696;11.950;2023-02-13T13:30:17;103073.47;;;10.65;100.00
13015;BME280;6573;57.696;11.950;2023-02-13T13:32:52;103089.66;;;10.77;100.00
13015;BME280;6573;57.696;11.950;2023-02-13T13:35:22;103092.84;;;10.67;100.00
13015;BME280;6573;57.696;11.950;2023-02-13T13:37:55;103093.72;;;10.66;100.00